sensor_id;sensor_type;location;lat;lon;timestamp;P1;durP1;ratioP1;P2;durP2;ratioP2
23680;SDS011;62915;50.832;4.462;2023-03-01T00:00:16;31.40;;;19.10;;
23680;SDS011;62915;50.832;4.462;2023-03-01T00:02:41;37.13;;;21.17;;
23680;SDS011;62915;50.832;4.462;2023-03-01T00:05:07;33.50;;;19.75;;
23680;SDS011;62915;50.832;4.462;2023-03-01T00:07:33;28.15;;;17.73;;
23680;SDS011;62915;50.832;4.462;2023-03-01T00:09:59;23.08;;;15.95;;
23680;SDS011;62915;50.832;4.462;2023-03-01T00:12:24;22.10;;;15.15;;
23680;SDS011;62915;50.832;4.462;2023-03-01T00:14:50;23.38;;;14.73;;
23680;SDS011;62915;50.832;4.462;2023-03-01T00:17:16;23.95;;;15.07;;
23680;SDS011;62915;50.832;4.462;2023-03-01T00:19:42;18.63;;;14.15;;
23680;SDS011;62915;50.832;4.462;2023-03-01T00:22:07;24.58;;;15.73;;
23680;SDS011;62915;50.832;4.462;2023-03-01T00:24:33;18.25;;;14.32;;
23680;SDS011;62915;50.832;4.462;2023-03-01T00:26:59;20.50;;;14.68;;
23680;SDS011;62915;50.832;4.462;2023-03-01T00:29:24;18.15;;;13.82;;
23680;SDS011;62915;50.832;4.462;2023-03-01T00:31:50;17.05;;;13.18;;
23680;SDS011;62915;50.832;4.462;2023-03-01T00:34:16;15.48;;;12.48;;
23680;SDS011;62915;50.832;4.462;2023-03-01T00:36:42;18.17;;;12.40;;
23680;SDS011;62915;50.832;4.462;2023-03-01T00:39:10;16.20;;;12.50;;
23680;SDS011;62915;50.832;4.462;2023-03-01T00:41:38;16.08;;;12.85;;
23680;SDS011;62915;50.832;4.462;2023-03-01T00:44:05;18.10;;;12.40;;
23680;SDS011;62915;50.832;4.462;2023-03-01T00:46:31;15.00;;;12.55;;
23680;SDS011;62915;50.832;4.462;2023-03-01T00:48:57;17.45;;;12.15;;
23680;SDS011;62915;50.832;4.462;2023-03-01T00:51:23;14.50;;;12.23;;
23680;SDS011;62915;50.832;4.462;2023-03-01T00:53:51;15.45;;;12.55;;
23680;SDS011;62915;50.832;4.462;2023-03-01T00:56:18;18.48;;;11.75;;
23680;SDS011;62915;50.832;4.462;2023-03-01T00:58:44;17.02;;;12.70;;
23680;SDS011;62915;50.832;4.462;2023-03-01T01:01:10;16.15;;;12.23;;
23680;SDS011;62915;50.832;4.462;2023-03-01T01:03:47;18.58;;;12.57;;
23680;SDS011;62915;50.832;4.462;2023-03-01T01:06:18;15.77;;;11.97;;
23680;SDS011;62915;50.832;4.462;2023-03-01T01:08:48;18.13;;;12.52;;
23680;SDS011;62915;50.832;4.462;2023-03-01T01:11:14;18.92;;;12.98;;
23680;SDS011;62915;50.832;4.462;2023-03-01T01:13:41;18.05;;;12.80;;
23680;SDS011;62915;50.832;4.462;2023-03-01T01:16:07;19.02;;;13.32;;
23680;SDS011;62915;50.832;4.462;2023-03-01T01:18:33;17.65;;;13.13;;
23680;SDS011;62915;50.832;4.462;2023-03-01T01:21:09;18.95;;;13.07;;
23680;SDS011;62915;50.832;4.462;2023-03-01T01:23:37;16.42;;;12.40;;
23680;SDS011;62915;50.832;4.462;2023-03-01T01:26:05;16.15;;;11.70;;
23680;SDS011;62915;50.832;4.462;2023-03-01T01:28:36;17.17;;;12.55;;
23680;SDS011;62915;50.832;4.462;2023-03-01T01:31:02;20.33;;;13.02;;
23680;SDS011;62915;50.832;4.462;2023-03-01T01:33:28;19.48;;;12.60;;
23680;SDS011;62915;50.832;4.462;2023-03-01T01:35:53;19.65;;;12.48;;
23680;SDS011;62915;50.832;4.462;2023-03-01T01:38:19;17.90;;;12.68;;
23680;SDS011;62915;50.832;4.462;2023-03-01T01:40:46;16.58;;;12.50;;
23680;SDS011;62915;50.832;4.462;2023-03-01T01:43:18;18.20;;;13.18;;
23680;SDS011;62915;50.832;4.462;2023-03-01T01:45:44;14.65;;;11.93;;
23680;SDS011;62915;50.832;4.462;2023-03-01T01:48:15;15.60;;;11.98;;
23680;SDS011;62915;50.832;4.462;2023-03-01T01:50:44;17.70;;;12.15;;
23680;SDS011;62915;50.832;4.462;2023-03-01T01:53:15;18.55;;;12.93;;
23680;SDS011;62915;50.832;4.462;2023-03-01T01:55:44;16.60;;;12.07;;
23680;SDS011;62915;50.832;4.462;2023-03-01T01:58:13;16.75;;;12.15;;
23680;SDS011;62915;50.832;4.462;2023-03-01T02:00:42;18.20;;;12.05;;
23680;SDS011;62915;50.832;4.462;2023-03-01T02:03:17;17.35;;;12.25;;
23680;SDS011;62915;50.832;4.462;2023-03-01T02:05:52;18.95;;;12.13;;
23680;SDS011;62915;50.832;4.462;2023-03-01T02:08:27;15.85;;;11.88;;
23680;SDS011;62915;50.832;4.462;2023-03-01T02:10:55;16.92;;;12.25;;
23680;SDS011;62915;50.832;4.462;2023-03-01T02:13:24;15.18;;;12.15;;
23680;SDS011;62915;50.832;4.462;2023-03-01T02:15:51;17.02;;;12.20;;
23680;SDS011;62915;50.832;4.462;2023-03-01T02:18:17;18.10;;;11.93;;
23680;SDS011;62915;50.832;4.462;2023-03-01T02:23:33;17.55;;;11.27;;
23680;SDS011;62915;50.832;4.462;2023-03-01T02:28:43;16.70;;;11.63;;
23680;SDS011;62915;50.832;4.462;2023-03-01T02:31:10;14.38;;;11.35;;
23680;SDS011;62915;50.832;4.462;2023-03-01T02:34:00;16.52;;;12.10;;
23680;SDS011;62915;50.832;4.462;2023-03-01T02:36:30;15.50;;;11.55;;
23680;SDS011;62915;50.832;4.462;2023-03-01T02:38:59;15.52;;;11.63;;
23680;SDS011;62915;50.832;4.462;2023-03-01T02:41:28;15.73;;;10.40;;
23680;SDS011;62915;50.832;4.462;2023-03-01T02:43:58;13.93;;;10.93;;
23680;SDS011;62915;50.832;4.462;2023-03-01T02:46:24;16.45;;;11.02;;
23680;SDS011;62915;50.832;4.462;2023-03-01T02:48:52;16.05;;;11.30;;
23680;SDS011;62915;50.832;4.462;2023-03-01T02:51:28;15.50;;;11.43;;
23680;SDS011;62915;50.832;4.462;2023-03-01T02:56:50;14.40;;;10.30;;
23680;SDS011;62915;50.832;4.462;2023-03-01T02:59:17;13.98;;;10.52;;
23680;SDS011;62915;50.832;4.462;2023-03-01T03:01:46;14.48;;;11.10;;
23680;SDS011;62915;50.832;4.462;2023-03-01T03:04:15;14.88;;;10.82;;
23680;SDS011;62915;50.832;4.462;2023-03-01T03:06:43;14.95;;;10.90;;
23680;SDS011;62915;50.832;4.462;2023-03-01T03:09:10;14.23;;;10.77;;
23680;SDS011;62915;50.832;4.462;2023-03-01T03:11:36;13.02;;;10.63;;
23680;SDS011;62915;50.832;4.462;2023-03-01T03:14:04;18.88;;;11.00;;
23680;SDS011;62915;50.832;4.462;2023-03-01T03:16:30;15.30;;;11.30;;
23680;SDS011;62915;50.832;4.462;2023-03-01T03:18:56;15.27;;;11.27;;
23680;SDS011;62915;50.832;4.462;2023-03-01T03:21:30;16.58;;;11.30;;
23680;SDS011;62915;50.832;4.462;2023-03-01T03:23:57;16.25;;;10.38;;
23680;SDS011;62915;50.832;4.462;2023-03-01T03:26:23;14.82;;;10.45;;
23680;SDS011;62915;50.832;4.462;2023-03-01T03:28:49;16.55;;;11.15;;
23680;SDS011;62915;50.832;4.462;2023-03-01T03:31:15;16.05;;;10.75;;
23680;SDS011;62915;50.832;4.462;2023-03-01T03:33:41;17.23;;;11.70;;
23680;SDS011;62915;50.832;4.462;2023-03-01T03:36:07;14.27;;;10.90;;
23680;SDS011;62915;50.832;4.462;2023-03-01T03:38:37;12.13;;;10.07;;
23680;SDS011;62915;50.832;4.462;2023-03-01T03:41:07;14.65;;;10.75;;
23680;SDS011;62915;50.832;4.462;2023-03-01T03:43:35;17.02;;;11.90;;
23680;SDS011;62915;50.832;4.462;2023-03-01T03:46:02;14.15;;;10.88;;
23680;SDS011;62915;50.832;4.462;2023-03-01T03:48:36;14.70;;;10.10;;
23680;SDS011;62915;50.832;4.462;2023-03-01T03:51:03;16.65;;;11.15;;
23680;SDS011;62915;50.832;4.462;2023-03-01T03:53:32;13.82;;;10.80;;
23680;SDS011;62915;50.832;4.462;2023-03-01T03:55:58;18.85;;;11.68;;
23680;SDS011;62915;50.832;4.462;2023-03-01T03:58:24;13.25;;;10.43;;
23680;SDS011;62915;50.832;4.462;2023-03-01T04:00:54;16.40;;;11.73;;
23680;SDS011;62915;50.832;4.462;2023-03-01T04:03:21;15.45;;;11.60;;
23680;SDS011;62915;50.832;4.462;2023-03-01T04:05:49;15.52;;;11.73;;
23680;SDS011;62915;50.832;4.462;2023-03-01T04:08:16;16.42;;;10.88;;
23680;SDS011;62915;50.832;4.462;2023-03-01T04:10:49;15.15;;;10.75;;
23680;SDS011;62915;50.832;4.462;2023-03-01T04:13:18;20.50;;;12.52;;
23680;SDS011;62915;50.832;4.462;2023-03-01T04:15:49;17.38;;;11.30;;
23680;SDS011;62915;50.832;4.462;2023-03-01T04:18:15;16.60;;;12.18;;
23680;SDS011;62915;50.832;4.462;2023-03-01T04:20:43;16.45;;;11.95;;
23680;SDS011;62915;50.832;4.462;2023-03-01T04:23:11;15.65;;;10.82;;
23680;SDS011;62915;50.832;4.462;2023-03-01T04:25:41;18.15;;;11.52;;
23680;SDS011;62915;50.832;4.462;2023-03-01T04:28:11;17.55;;;11.60;;
23680;SDS011;62915;50.832;4.462;2023-03-01T04:30:37;15.50;;;11.38;;
23680;SDS011;62915;50.832;4.462;2023-03-01T04:33:10;16.17;;;11.70;;
23680;SDS011;62915;50.832;4.462;2023-03-01T04:35:36;16.55;;;11.55;;
23680;SDS011;62915;50.832;4.462;2023-03-01T04:38:04;18.20;;;11.85;;
23680;SDS011;62915;50.832;4.462;2023-03-01T04:40:30;15.88;;;11.95;;
23680;SDS011;62915;50.832;4.462;2023-03-01T04:42:56;16.35;;;12.25;;
23680;SDS011;62915;50.832;4.462;2023-03-01T04:45:22;15.32;;;11.60;;
23680;SDS011;62915;50.832;4.462;2023-03-01T04:47:47;16.17;;;11.93;;
23680;SDS011;62915;50.832;4.462;2023-03-01T04:50:14;17.15;;;12.02;;
23680;SDS011;62915;50.832;4.462;2023-03-01T04:52:42;13.60;;;10.40;;
23680;SDS011;62915;50.832;4.462;2023-03-01T04:55:09;16.00;;;11.73;;
23680;SDS011;62915;50.832;4.462;2023-03-01T04:57:36;18.98;;;11.68;;
23680;SDS011;62915;50.832;4.462;2023-03-01T05:00:02;16.88;;;11.35;;
23680;SDS011;62915;50.832;4.462;2023-03-01T05:02:45;16.70;;;11.00;;
23680;SDS011;62915;50.832;4.462;2023-03-01T05:05:35;14.65;;;11.02;;
23680;SDS011;62915;50.832;4.462;2023-03-01T05:08:04;16.02;;;11.68;;
23680;SDS011;62915;50.832;4.462;2023-03-01T05:10:32;16.75;;;11.50;;
23680;SDS011;62915;50.832;4.462;2023-03-01T05:13:00;16.15;;;11.73;;
23680;SDS011;62915;50.832;4.462;2023-03-01T05:15:27;14.48;;;11.18;;
23680;SDS011;62915;50.832;4.462;2023-03-01T05:17:55;14.45;;;10.80;;
23680;SDS011;62915;50.832;4.462;2023-03-01T05:20:23;17.45;;;11.43;;
23680;SDS011;62915;50.832;4.462;2023-03-01T05:22:49;20.23;;;11.73;;
23680;SDS011;62915;50.832;4.462;2023-03-01T05:25:16;19.08;;;12.60;;
23680;SDS011;62915;50.832;4.462;2023-03-01T05:27:41;16.65;;;11.32;;
23680;SDS011;62915;50.832;4.462;2023-03-01T05:30:08;16.17;;;11.98;;
23680;SDS011;62915;50.832;4.462;2023-03-01T05:32:47;18.60;;;11.80;;
23680;SDS011;62915;50.832;4.462;2023-03-01T05:35:15;14.75;;;10.55;;
23680;SDS011;62915;50.832;4.462;2023-03-01T05:37:43;15.40;;;11.07;;
23680;SDS011;62915;50.832;4.462;2023-03-01T05:40:15;14.85;;;11.82;;
23680;SDS011;62915;50.832;4.462;2023-03-01T05:45:12;17.17;;;11.35;;
23680;SDS011;62915;50.832;4.462;2023-03-01T05:47:39;16.40;;;11.20;;
23680;SDS011;62915;50.832;4.462;2023-03-01T05:50:27;15.10;;;10.65;;
23680;SDS011;62915;50.832;4.462;2023-03-01T05:52:58;16.55;;;11.43;;
23680;SDS011;62915;50.832;4.462;2023-03-01T05:55:26;15.45;;;11.85;;
23680;SDS011;62915;50.832;4.462;2023-03-01T05:57:53;17.83;;;12.10;;
23680;SDS011;62915;50.832;4.462;2023-03-01T06:00:20;14.73;;;11.43;;
23680;SDS011;62915;50.832;4.462;2023-03-01T06:02:48;17.42;;;11.80;;
23680;SDS011;62915;50.832;4.462;2023-03-01T06:05:14;14.38;;;11.00;;
23680;SDS011;62915;50.832;4.462;2023-03-01T06:07:40;13.90;;;11.38;;
23680;SDS011;62915;50.832;4.462;2023-03-01T06:10:06;18.75;;;11.80;;
23680;SDS011;62915;50.832;4.462;2023-03-01T06:12:34;19.50;;;11.40;;
23680;SDS011;62915;50.832;4.462;2023-03-01T06:15:01;18.08;;;11.30;;
23680;SDS011;62915;50.832;4.462;2023-03-01T06:17:31;14.75;;;11.73;;
23680;SDS011;62915;50.832;4.462;2023-03-01T06:20:02;16.52;;;11.82;;
23680;SDS011;62915;50.832;4.462;2023-03-01T06:22:29;14.48;;;10.70;;
23680;SDS011;62915;50.832;4.462;2023-03-01T06:24:55;19.15;;;12.52;;
23680;SDS011;62915;50.832;4.462;2023-03-01T06:27:20;18.73;;;12.13;;
23680;SDS011;62915;50.832;4.462;2023-03-01T06:29:46;14.38;;;10.55;;
23680;SDS011;62915;50.832;4.462;2023-03-01T06:32:12;17.05;;;11.27;;
23680;SDS011;62915;50.832;4.462;2023-03-01T06:34:37;15.77;;;10.38;;
23680;SDS011;62915;50.832;4.462;2023-03-01T06:37:03;16.88;;;11.50;;
23680;SDS011;62915;50.832;4.462;2023-03-01T06:39:30;18.98;;;12.05;;
23680;SDS011;62915;50.832;4.462;2023-03-01T06:41:56;18.13;;;12.13;;
23680;SDS011;62915;50.832;4.462;2023-03-01T06:44:22;18.35;;;12.32;;
23680;SDS011;62915;50.832;4.462;2023-03-01T06:46:47;15.13;;;11.73;;
23680;SDS011;62915;50.832;4.462;2023-03-01T06:49:13;17.65;;;11.48;;
23680;SDS011;62915;50.832;4.462;2023-03-01T06:51:41;18.58;;;10.90;;
23680;SDS011;62915;50.832;4.462;2023-03-01T06:54:07;19.30;;;11.40;;
23680;SDS011;62915;50.832;4.462;2023-03-01T06:56:32;17.05;;;12.02;;
23680;SDS011;62915;50.832;4.462;2023-03-01T06:58:58;21.40;;;12.30;;
23680;SDS011;62915;50.832;4.462;2023-03-01T07:01:24;15.15;;;12.02;;
23680;SDS011;62915;50.832;4.462;2023-03-01T07:03:50;16.60;;;12.48;;
23680;SDS011;62915;50.832;4.462;2023-03-01T07:06:15;17.92;;;11.85;;
23680;SDS011;62915;50.832;4.462;2023-03-01T07:08:42;22.33;;;12.45;;
23680;SDS011;62915;50.832;4.462;2023-03-01T07:11:08;14.65;;;11.30;;
23680;SDS011;62915;50.832;4.462;2023-03-01T07:13:34;18.58;;;12.48;;
23680;SDS011;62915;50.832;4.462;2023-03-01T07:16:00;17.23;;;12.70;;
23680;SDS011;62915;50.832;4.462;2023-03-01T07:18:25;18.58;;;11.63;;
23680;SDS011;62915;50.832;4.462;2023-03-01T07:20:51;15.85;;;12.05;;
23680;SDS011;62915;50.832;4.462;2023-03-01T07:23:17;17.65;;;12.77;;
23680;SDS011;62915;50.832;4.462;2023-03-01T07:25:43;18.67;;;12.50;;
23680;SDS011;62915;50.832;4.462;2023-03-01T07:28:08;18.63;;;12.15;;
23680;SDS011;62915;50.832;4.462;2023-03-01T07:30:34;15.77;;;12.40;;
23680;SDS011;62915;50.832;4.462;2023-03-01T07:33:00;19.88;;;12.85;;
23680;SDS011;62915;50.832;4.462;2023-03-01T07:35:26;19.35;;;12.32;;
23680;SDS011;62915;50.832;4.462;2023-03-01T07:37:52;20.40;;;11.32;;
23680;SDS011;62915;50.832;4.462;2023-03-01T07:40:18;15.80;;;11.30;;
23680;SDS011;62915;50.832;4.462;2023-03-01T07:42:44;15.10;;;10.23;;
23680;SDS011;62915;50.832;4.462;2023-03-01T07:45:10;14.43;;;9.95;;
23680;SDS011;62915;50.832;4.462;2023-03-01T07:47:38;12.35;;;9.68;;
23680;SDS011;62915;50.832;4.462;2023-03-01T07:50:04;17.27;;;10.43;;
23680;SDS011;62915;50.832;4.462;2023-03-01T07:52:30;16.23;;;10.38;;
23680;SDS011;62915;50.832;4.462;2023-03-01T07:54:57;13.55;;;10.32;;
23680;SDS011;62915;50.832;4.462;2023-03-01T07:57:25;14.88;;;10.95;;
23680;SDS011;62915;50.832;4.462;2023-03-01T07:59:51;16.00;;;10.13;;
23680;SDS011;62915;50.832;4.462;2023-03-01T08:02:18;11.82;;;9.88;;
23680;SDS011;62915;50.832;4.462;2023-03-01T08:04:44;14.13;;;10.32;;
23680;SDS011;62915;50.832;4.462;2023-03-01T08:07:10;13.73;;;10.23;;
23680;SDS011;62915;50.832;4.462;2023-03-01T08:09:35;21.40;;;10.23;;
23680;SDS011;62915;50.832;4.462;2023-03-01T08:12:04;14.27;;;10.38;;
23680;SDS011;62915;50.832;4.462;2023-03-01T08:14:31;17.48;;;11.00;;
23680;SDS011;62915;50.832;4.462;2023-03-01T08:17:00;14.35;;;10.25;;
23680;SDS011;62915;50.832;4.462;2023-03-01T08:19:29;15.98;;;10.32;;
23680;SDS011;62915;50.832;4.462;2023-03-01T08:21:56;15.05;;;10.20;;
23680;SDS011;62915;50.832;4.462;2023-03-01T08:24:24;12.98;;;9.95;;
23680;SDS011;62915;50.832;4.462;2023-03-01T08:26:52;17.08;;;11.15;;
23680;SDS011;62915;50.832;4.462;2023-03-01T08:29:22;15.15;;;10.50;;
23680;SDS011;62915;50.832;4.462;2023-03-01T08:31:49;20.95;;;10.98;;
23680;SDS011;62915;50.832;4.462;2023-03-01T08:34:16;18.65;;;11.02;;
23680;SDS011;62915;50.832;4.462;2023-03-01T08:36:43;17.60;;;10.88;;
23680;SDS011;62915;50.832;4.462;2023-03-01T08:39:10;15.82;;;11.30;;
23680;SDS011;62915;50.832;4.462;2023-03-01T08:41:39;16.58;;;11.20;;
23680;SDS011;62915;50.832;4.462;2023-03-01T08:44:07;14.90;;;11.23;;
23680;SDS011;62915;50.832;4.462;2023-03-01T08:46:37;14.80;;;10.75;;
23680;SDS011;62915;50.832;4.462;2023-03-01T08:49:08;17.85;;;11.27;;
23680;SDS011;62915;50.832;4.462;2023-03-01T08:51:38;19.85;;;11.40;;
23680;SDS011;62915;50.832;4.462;2023-03-01T08:54:06;18.05;;;12.07;;
23680;SDS011;62915;50.832;4.462;2023-03-01T08:56:36;18.15;;;12.63;;
23680;SDS011;62915;50.832;4.462;2023-03-01T08:59:02;15.10;;;11.23;;
23680;SDS011;62915;50.832;4.462;2023-03-01T09:01:27;15.68;;;12.52;;
23680;SDS011;62915;50.832;4.462;2023-03-01T09:03:53;20.73;;;12.35;;
23680;SDS011;62915;50.832;4.462;2023-03-01T09:06:19;15.93;;;11.55;;
23680;SDS011;62915;50.832;4.462;2023-03-01T09:08:46;15.40;;;11.57;;
23680;SDS011;62915;50.832;4.462;2023-03-01T09:11:14;17.05;;;11.43;;
23680;SDS011;62915;50.832;4.462;2023-03-01T09:13:43;22.05;;;12.60;;
23680;SDS011;62915;50.832;4.462;2023-03-01T09:16:10;18.33;;;11.68;;
23680;SDS011;62915;50.832;4.462;2023-03-01T09:18:37;22.80;;;12.32;;
23680;SDS011;62915;50.832;4.462;2023-03-01T09:21:04;19.23;;;11.88;;
23680;SDS011;62915;50.832;4.462;2023-03-01T09:23:39;16.70;;;11.70;;
23680;SDS011;62915;50.832;4.462;2023-03-01T09:26:06;17.02;;;11.27;;
23680;SDS011;62915;50.832;4.462;2023-03-01T09:28:38;17.42;;;12.70;;
23680;SDS011;62915;50.832;4.462;2023-03-01T09:31:05;16.75;;;11.55;;
23680;SDS011;62915;50.832;4.462;2023-03-01T09:33:32;16.23;;;11.13;;
23680;SDS011;62915;50.832;4.462;2023-03-01T09:36:02;15.48;;;11.38;;
23680;SDS011;62915;50.832;4.462;2023-03-01T09:38:29;18.60;;;11.73;;
23680;SDS011;62915;50.832;4.462;2023-03-01T09:40:56;17.33;;;11.45;;
23680;SDS011;62915;50.832;4.462;2023-03-01T09:46:11;16.15;;;11.52;;
23680;SDS011;62915;50.832;4.462;2023-03-01T09:48:43;17.85;;;11.43;;
23680;SDS011;62915;50.832;4.462;2023-03-01T09:51:27;17.25;;;11.13;;
23680;SDS011;62915;50.832;4.462;2023-03-01T09:54:01;17.67;;;10.77;;
23680;SDS011;62915;50.832;4.462;2023-03-01T09:56:36;13.80;;;11.15;;
23680;SDS011;62915;50.832;4.462;2023-03-01T09:59:23;16.42;;;10.93;;
23680;SDS011;62915;50.832;4.462;2023-03-01T10:05:05;15.40;;;11.45;;
23680;SDS011;62915;50.832;4.462;2023-03-01T10:10:33;17.75;;;12.18;;
23680;SDS011;62915;50.832;4.462;2023-03-01T10:13:15;16.20;;;11.77;;
23680;SDS011;62915;50.832;4.462;2023-03-01T10:15:44;18.38;;;12.20;;
23680;SDS011;62915;50.832;4.462;2023-03-01T10:18:36;17.27;;;12.68;;
23680;SDS011;62915;50.832;4.462;2023-03-01T10:21:14;18.77;;;12.55;;
23680;SDS011;62915;50.832;4.462;2023-03-01T10:23:44;18.85;;;12.60;;
23680;SDS011;62915;50.832;4.462;2023-03-01T10:29:02;16.98;;;12.50;;
23680;SDS011;62915;50.832;4.462;2023-03-01T10:31:54;16.52;;;12.02;;
23680;SDS011;62915;50.832;4.462;2023-03-01T10:34:22;16.92;;;12.10;;
23680;SDS011;62915;50.832;4.462;2023-03-01T10:36:56;17.90;;;11.75;;
23680;SDS011;62915;50.832;4.462;2023-03-01T10:39:26;19.58;;;12.68;;
23680;SDS011;62915;50.832;4.462;2023-03-01T10:44:36;18.33;;;12.48;;
23680;SDS011;62915;50.832;4.462;2023-03-01T10:47:04;19.77;;;12.27;;
23680;SDS011;62915;50.832;4.462;2023-03-01T10:49:36;14.98;;;12.00;;
23680;SDS011;62915;50.832;4.462;2023-03-01T10:52:11;17.60;;;11.98;;
23680;SDS011;62915;50.832;4.462;2023-03-01T10:54:52;16.40;;;11.95;;
23680;SDS011;62915;50.832;4.462;2023-03-01T10:57:29;15.57;;;11.93;;
23680;SDS011;62915;50.832;4.462;2023-03-01T11:00:18;17.15;;;12.20;;
23680;SDS011;62915;50.832;4.462;2023-03-01T11:03:02;16.75;;;11.98;;
23680;SDS011;62915;50.832;4.462;2023-03-01T11:05:37;16.27;;;11.63;;
23680;SDS011;62915;50.832;4.462;2023-03-01T11:08:14;15.60;;;11.98;;
23680;SDS011;62915;50.832;4.462;2023-03-01T11:10:59;17.85;;;12.45;;
23680;SDS011;62915;50.832;4.462;2023-03-01T11:13:30;16.92;;;12.35;;
23680;SDS011;62915;50.832;4.462;2023-03-01T11:16:06;14.98;;;11.40;;
23680;SDS011;62915;50.832;4.462;2023-03-01T11:18:36;16.27;;;12.07;;
23680;SDS011;62915;50.832;4.462;2023-03-01T11:21:01;13.82;;;11.45;;
23680;SDS011;62915;50.832;4.462;2023-03-01T11:23:29;15.80;;;12.10;;
23680;SDS011;62915;50.832;4.462;2023-03-01T11:26:02;15.48;;;12.13;;
23680;SDS011;62915;50.832;4.462;2023-03-01T11:28:32;16.52;;;10.88;;
23680;SDS011;62915;50.832;4.462;2023-03-01T11:39:18;14.35;;;11.38;;
23680;SDS011;62915;50.832;4.462;2023-03-01T11:42:11;17.70;;;11.95;;
23680;SDS011;62915;50.832;4.462;2023-03-01T11:44:43;16.52;;;11.18;;
23680;SDS011;62915;50.832;4.462;2023-03-01T11:57:48;14.93;;;10.80;;
23680;SDS011;62915;50.832;4.462;2023-03-01T12:08:35;13.77;;;10.75;;
23680;SDS011;62915;50.832;4.462;2023-03-01T12:14:24;12.23;;;10.18;;
23680;SDS011;62915;50.832;4.462;2023-03-01T12:20:21;15.20;;;11.30;;
23680;SDS011;62915;50.832;4.462;2023-03-01T12:26:06;14.30;;;9.60;;
23680;SDS011;62915;50.832;4.462;2023-03-01T12:50:10;14.93;;;10.48;;
23680;SDS011;62915;50.832;4.462;2023-03-01T12:52:44;12.50;;;9.85;;
23680;SDS011;62915;50.832;4.462;2023-03-01T12:55:36;15.45;;;9.95;;
23680;SDS011;62915;50.832;4.462;2023-03-01T12:58:21;13.93;;;10.13;;
23680;SDS011;62915;50.832;4.462;2023-03-01T13:01:05;15.15;;;11.00;;
23680;SDS011;62915;50.832;4.462;2023-03-01T13:13:29;13.70;;;10.50;;
23680;SDS011;62915;50.832;4.462;2023-03-01T13:17:57;20.17;;;10.38;;
23680;SDS011;62915;50.832;4.462;2023-03-01T13:23:28;14.98;;;9.77;;
23680;SDS011;62915;50.832;4.462;2023-03-01T13:28:38;16.33;;;11.30;;
23680;SDS011;62915;50.832;4.462;2023-03-01T13:31:06;15.52;;;10.38;;
23680;SDS011;62915;50.832;4.462;2023-03-01T13:33:33;15.55;;;10.43;;
23680;SDS011;62915;50.832;4.462;2023-03-01T13:46:59;17.45;;;10.18;;
23680;SDS011;62915;50.832;4.462;2023-03-01T13:50:18;11.48;;;9.30;;
23680;SDS011;62915;50.832;4.462;2023-03-01T13:54:59;13.98;;;9.73;;
23680;SDS011;62915;50.832;4.462;2023-03-01T13:57:28;32.50;;;10.07;;
23680;SDS011;62915;50.832;4.462;2023-03-01T14:00:01;17.45;;;9.65;;
23680;SDS011;62915;50.832;4.462;2023-03-01T14:02:28;16.00;;;10.45;;
23680;SDS011;62915;50.832;4.462;2023-03-01T14:05:00;15.38;;;11.00;;
23680;SDS011;62915;50.832;4.462;2023-03-01T14:07:27;13.15;;;10.20;;
23680;SDS011;62915;50.832;4.462;2023-03-01T14:10:00;14.85;;;10.98;;
23680;SDS011;62915;50.832;4.462;2023-03-01T14:15:02;12.63;;;10.25;;
23680;SDS011;62915;50.832;4.462;2023-03-01T14:20:21;19.20;;;10.20;;
23680;SDS011;62915;50.832;4.462;2023-03-01T14:22:49;15.45;;;10.90;;
23680;SDS011;62915;50.832;4.462;2023-03-01T14:25:21;16.65;;;9.38;;
23680;SDS011;62915;50.832;4.462;2023-03-01T14:28:26;15.53;;;10.37;;
23680;SDS011;62915;50.832;4.462;2023-03-01T14:30:51;15.98;;;9.82;;
23680;SDS011;62915;50.832;4.462;2023-03-01T14:41:01;14.88;;;9.93;;
23680;SDS011;62915;50.832;4.462;2023-03-01T14:43:44;14.45;;;9.60;;
23680;SDS011;62915;50.832;4.462;2023-03-01T14:46:25;16.20;;;10.43;;
23680;SDS011;62915;50.832;4.462;2023-03-01T14:49:01;14.45;;;10.40;;
23680;SDS011;62915;50.832;4.462;2023-03-01T14:51:39;14.57;;;9.85;;
23680;SDS011;62915;50.832;4.462;2023-03-01T14:56:53;12.90;;;10.38;;
23680;SDS011;62915;50.832;4.462;2023-03-01T14:59:22;16.67;;;9.50;;
23680;SDS011;62915;50.832;4.462;2023-03-01T15:01:50;13.75;;;10.50;;
23680;SDS011;62915;50.832;4.462;2023-03-01T15:04:18;12.13;;;9.38;;
23680;SDS011;62915;50.832;4.462;2023-03-01T15:06:44;15.57;;;10.07;;
23680;SDS011;62915;50.832;4.462;2023-03-01T15:09:12;16.73;;;10.00;;
23680;SDS011;62915;50.832;4.462;2023-03-01T15:11:41;14.45;;;10.23;;
23680;SDS011;62915;50.832;4.462;2023-03-01T15:17:19;15.48;;;10.15;;
23680;SDS011;62915;50.832;4.462;2023-03-01T15:19:51;15.90;;;10.02;;
23680;SDS011;62915;50.832;4.462;2023-03-01T15:22:17;11.18;;;9.63;;
23680;SDS011;62915;50.832;4.462;2023-03-01T15:24:46;13.25;;;9.52;;
23680;SDS011;62915;50.832;4.462;2023-03-01T15:27:15;16.98;;;10.38;;
23680;SDS011;62915;50.832;4.462;2023-03-01T15:29:48;16.60;;;10.32;;
23680;SDS011;62915;50.832;4.462;2023-03-01T15:32:28;14.27;;;10.50;;
23680;SDS011;62915;50.832;4.462;2023-03-01T15:34:56;18.67;;;10.13;;
23680;SDS011;62915;50.832;4.462;2023-03-01T15:42:45;12.50;;;9.48;;
23680;SDS011;62915;50.832;4.462;2023-03-01T15:47:47;16.67;;;10.07;;
23680;SDS011;62915;50.832;4.462;2023-03-01T15:50:25;12.05;;;9.18;;
23680;SDS011;62915;50.832;4.462;2023-03-01T15:52:56;12.98;;;9.55;;
23680;SDS011;62915;50.832;4.462;2023-03-01T15:55:24;14.80;;;9.48;;
23680;SDS011;62915;50.832;4.462;2023-03-01T15:58:14;12.98;;;9.27;;
23680;SDS011;62915;50.832;4.462;2023-03-01T16:00:43;15.88;;;8.90;;
23680;SDS011;62915;50.832;4.462;2023-03-01T16:03:10;11.20;;;8.50;;
23680;SDS011;62915;50.832;4.462;2023-03-01T16:05:37;13.20;;;9.13;;
23680;SDS011;62915;50.832;4.462;2023-03-01T16:08:04;13.23;;;8.48;;
23680;SDS011;62915;50.832;4.462;2023-03-01T16:10:34;12.68;;;9.25;;
23680;SDS011;62915;50.832;4.462;2023-03-01T16:13:00;12.07;;;8.93;;
23680;SDS011;62915;50.832;4.462;2023-03-01T16:15:30;18.60;;;9.57;;
23680;SDS011;62915;50.832;4.462;2023-03-01T16:17:59;14.30;;;9.43;;
23680;SDS011;62915;50.832;4.462;2023-03-01T16:20:25;11.13;;;8.18;;
23680;SDS011;62915;50.832;4.462;2023-03-01T16:22:51;14.45;;;8.70;;
23680;SDS011;62915;50.832;4.462;2023-03-01T16:25:18;13.30;;;8.23;;
23680;SDS011;62915;50.832;4.462;2023-03-01T16:27:46;15.88;;;8.40;;
23680;SDS011;62915;50.832;4.462;2023-03-01T16:30:17;11.70;;;7.95;;
23680;SDS011;62915;50.832;4.462;2023-03-01T16:32:45;12.90;;;8.35;;
23680;SDS011;62915;50.832;4.462;2023-03-01T16:35:12;11.10;;;8.18;;
23680;SDS011;62915;50.832;4.462;2023-03-01T16:37:39;13.00;;;8.05;;
23680;SDS011;62915;50.832;4.462;2023-03-01T16:40:21;11.77;;;8.25;;
23680;SDS011;62915;50.832;4.462;2023-03-01T16:42:51;16.27;;;7.97;;
23680;SDS011;62915;50.832;4.462;2023-03-01T16:45:18;15.38;;;8.82;;
23680;SDS011;62915;50.832;4.462;2023-03-01T16:47:44;12.07;;;8.32;;
23680;SDS011;62915;50.832;4.462;2023-03-01T16:50:10;13.18;;;8.90;;
23680;SDS011;62915;50.832;4.462;2023-03-01T16:52:36;12.98;;;8.57;;
23680;SDS011;62915;50.832;4.462;2023-03-01T16:55:02;10.77;;;8.80;;
23680;SDS011;62915;50.832;4.462;2023-03-01T16:57:29;13.55;;;8.57;;